Pagrindinis puslapis
METAR-TAF:

METAR-TAF

Oro uostai :

Hohn, Vokietija

platuma: 54-19N, ilguma: 009-32E, Aukštis: 12 m

Dabartinis oras

Ataskaita buvo paskelbta 26 minutes, ne 21:20 UTC
Vėjas 2 kt nuo kintamojo kryptimis
Temperatūra 12°C
Drėgmė 100%
Slėgis 1008 hPa

METAR: ETNH 162120Z AUTO VRB02KT //// // ////// 12/12 Q1008 ///

Laikas: 23:46 (21:46 UTC)


TAF: trūkstamas

Orai ataskaitas ir orų prognozės (METAR, TAF).

turimą stotys yra geltonos ir raudonos taškus žemėlapyje.

Perkelti pele per norėdami pamatyti stoties vardą.

Tada spustelėkite, norėdami matyti oro stebėjimo ir prognozės.

Norėdami pakeisti žemėlapį: spustelėkite ant žalios mygtukų su juodo kryžiaus žemyn,; žalią mygtuką su brūkšneliu, jei norite nutolinti; arba žalių rodyklių gretimoms žemėlapius.


METAR-TAF: